Time;durP1;ratioP1;P1;durP2;ratioP2;P2;SDS_P1;SDS_P2;PMS_P1;PMS_P2;Temp;Humidity;BMP_temperature;BMP_pressure;BME280_temperature;BME280_humidity;BME280_pressure;Samples;Min_cycle;Max_cycle;Signal;HPM_P1;HPM_P2
2021/09/03 00:01:40;;;;;;;;;11.00;10.33;;;;;17.68;60.40;101629.78;4973774;28;45964;-71
2021/09/03 00:04:06;;;;;;;;;15.00;14.00;;;;;17.65;60.42;101621.09;4974850;28;45487;-68
2021/09/03 00:06:31;;;;;;;;;15.33;15.00;;;;;17.63;60.77;101623.09;4974802;28;45325;-70
2021/09/03 00:08:57;;;;;;;;;18.67;14.33;;;;;17.62;60.68;101618.75;4974666;28;47131;-68
2021/09/03 00:11:22;;;;;;;;;14.00;12.67;;;;;17.59;60.84;101634.09;4974298;28;45356;-69
2021/09/03 00:13:47;;;;;;;;;14.00;13.00;;;;;17.57;60.87;101622.81;4975369;28;45297;-69
2021/09/03 00:16:13;;;;;;;;;13.00;11.00;;;;;17.56;60.95;101619.28;4974286;28;45293;-70
2021/09/03 00:18:39;;;;;;;;;19.67;15.33;;;;;17.53;61.19;101616.91;4972938;28;46945;-69
2021/09/03 00:21:04;;;;;;;;;14.67;13.67;;;;;17.51;61.37;101618.03;4974442;28;45474;-71
2021/09/03 00:23:30;;;;;;;;;18.67;15.33;;;;;17.48;61.35;101613.84;4977027;28;45294;-69
2021/09/03 00:25:55;;;;;;;;;15.33;13.33;;;;;17.44;61.40;101617.75;4978135;28;45568;-70
2021/09/03 00:28:20;;;;;;;;;13.67;13.00;;;;;17.42;61.62;101617.03;4977785;28;45424;-71
2021/09/03 00:30:46;;;;;;;;;16.67;14.00;;;;;17.41;61.77;101620.66;4977822;28;45745;-70
2021/09/03 00:33:11;;;;;;;;;19.00;15.00;;;;;17.38;61.65;101613.81;4977699;28;45512;-70
2021/09/03 00:35:36;;;;;;;;;16.67;13.67;;;;;17.37;61.95;101611.28;4978064;28;45444;-70
2021/09/03 00:38:02;;;;;;;;;19.33;16.33;;;;;17.36;61.95;101609.59;4978459;28;46405;-69
2021/09/03 00:40:27;;;;;;;;;15.67;15.33;;;;;17.34;61.67;101608.94;4978042;28;45412;-69
2021/09/03 00:42:53;;;;;;;;;15.67;15.33;;;;;17.32;61.87;101611.72;4977986;28;45456;-68
2021/09/03 00:45:18;;;;;;;;;16.67;13.67;;;;;17.30;61.62;101601.22;4977472;28;45479;-69
2021/09/03 00:47:43;;;;;;;;;14.67;13.00;;;;;17.28;61.99;101600.53;4977625;28;45367;-70
2021/09/03 00:50:10;;;;;;;;;15.00;12.67;;;;;17.29;62.10;101604.00;4981224;28;45353;-70
2021/09/03 00:52:36;;;;;;;;;16.00;16.00;;;;;17.24;61.69;101591.16;4978150;28;45549;-70
2021/09/03 00:55:02;;;;;;;;;17.33;16.00;;;;;17.22;62.27;101593.09;4977311;28;46080;-70
2021/09/03 00:57:28;;;;;;;;;16.00;14.33;;;;;17.23;62.09;101589.47;4977025;28;48259;-68
2021/09/03 00:59:55;;;;;;;;;17.33;14.67;;;;;17.22;62.00;101592.28;4977239;28;45421;-68
2021/09/03 01:02:21;;;;;;;;;17.67;14.33;;;;;17.19;62.01;101587.22;4977570;28;45572;-68
2021/09/03 01:04:47;;;;;;;;;18.67;16.00;;;;;17.16;62.49;101583.03;4977930;28;45479;-68
2021/09/03 01:07:13;;;;;;;;;16.00;13.67;;;;;17.17;62.60;101583.88;4977202;28;47307;-69
2021/09/03 01:09:38;;;;;;;;;22.67;15.33;;;;;17.16;62.40;101577.72;4977114;28;45522;-69
2021/09/03 01:12:04;;;;;;;;;19.67;17.67;;;;;17.11;62.42;101580.78;4977529;28;45325;-69
2021/09/03 01:14:29;;;;;;;;;22.00;19.00;;;;;17.12;62.66;101584.28;4961747;28;45323;-69
2021/09/03 01:16:55;;;;;;;;;17.00;17.00;;;;;17.10;62.84;101581.75;4977725;28;45484;-69
2021/09/03 01:19:20;;;;;;;;;22.33;16.33;;;;;17.10;62.77;101583.56;4977043;28;45446;-69
2021/09/03 01:21:48;;;;;;;;;13.33;12.00;;;;;17.10;62.94;101570.28;4976787;28;45621;-69
2021/09/03 01:24:13;;;;;;;;;19.00;16.00;;;;;17.09;62.87;101576.59;4975699;28;45458;-69
2021/09/03 01:26:38;;;;;;;;;19.67;18.00;;;;;17.04;62.87;101568.19;4976991;28;45404;-70
2021/09/03 01:29:04;;;;;;;;;22.67;18.67;;;;;17.02;63.00;101564.81;4977300;28;45387;-69
2021/09/03 01:31:29;;;;;;;;;16.67;15.67;;;;;16.99;62.85;101566.78;4977030;28;45274;-70
2021/09/03 01:33:57;;;;;;;;;21.67;17.00;;;;;16.98;63.25;101570.41;4975867;28;45237;-70
2021/09/03 01:36:29;;;;;;;;;20.00;16.33;;;;;16.98;63.28;101557.16;4976592;28;47165;-69
2021/09/03 01:38:55;;;;;;;;;24.67;18.33;;;;;16.96;63.42;101553.78;4976310;28;45321;-70
2021/09/03 01:41:21;;;;;;;;;22.00;19.00;;;;;16.93;63.77;101559.38;4977210;28;45450;-69
2021/09/03 01:43:46;;;;;;;;;20.00;19.33;;;;;16.91;63.66;101561.31;4977182;28;45476;-69
2021/09/03 01:46:12;;;;;;;;;26.33;24.00;;;;;16.90;63.81;101556.97;4976344;28;45310;-69
2021/09/03 01:48:37;;;;;;;;;23.67;23.67;;;;;16.88;63.98;101558.03;4976635;28;45396;-69
2021/09/03 01:51:02;;;;;;;;;29.33;26.00;;;;;16.89;64.00;101562.38;4976789;28;45544;-69
2021/09/03 01:53:28;;;;;;;;;25.00;22.00;;;;;16.85;63.73;101553.00;4975830;28;45546;-71
2021/09/03 01:55:53;;;;;;;;;40.67;29.33;;;;;16.85;64.03;101556.50;4977478;28;45475;-72
2021/09/03 01:58:19;;;;;;;;;31.33;27.00;;;;;16.81;64.31;101557.75;4975926;28;45349;-70
2021/09/03 02:00:44;;;;;;;;;33.33;23.33;;;;;16.79;64.61;101554.41;4976749;28;45598;-71
2021/09/03 02:03:09;;;;;;;;;32.33;29.00;;;;;16.76;64.41;101552.00;4976714;28;45567;-69
2021/09/03 02:05:35;;;;;;;;;29.00;25.00;;;;;16.74;64.77;101556.63;4976579;28;46445;-71
2021/09/03 02:08:00;;;;;;;;;34.33;27.00;;;;;16.71;65.10;101546.25;4976647;28;45453;-70
2021/09/03 02:10:25;;;;;;;;;36.33;30.00;;;;;16.67;65.12;101541.22;4975168;28;45412;-70
2021/09/03 02:12:51;;;;;;;;;36.00;30.33;;;;;16.66;65.50;101544.84;4976386;28;45353;-70
2021/09/03 02:15:16;;;;;;;;;23.67;23.67;;;;;16.63;65.46;101538.97;4991490;28;46052;-71
2021/09/03 02:17:42;;;;;;;;;37.67;29.33;;;;;16.61;65.38;101540.94;4976426;28;45371;-70
2021/09/03 02:20:07;;;;;;;;;35.33;29.00;;;;;16.60;65.48;101545.38;4980534;28;45362;-70
2021/09/03 02:22:33;;;;;;;;;34.33;30.67;;;;;16.57;65.88;101544.84;4977858;28;45537;-70
2021/09/03 02:24:58;;;;;;;;;32.33;29.00;;;;;16.54;65.54;101556.53;4976433;28;46595;-70
2021/09/03 02:27:24;;;;;;;;;37.67;31.33;;;;;16.50;65.64;101549.81;4976163;28;45392;-70
2021/09/03 02:29:49;;;;;;;;;31.33;28.33;;;;;16.50;65.77;101550.66;4976362;28;45476;-72
2021/09/03 02:32:19;;;;;;;;;41.33;32.33;;;;;16.49;65.89;101553.44;4977015;28;45370;-70
2021/09/03 02:34:44;;;;;;;;;34.00;30.00;;;;;16.49;65.86;101553.44;4976604;28;45503;-70
2021/09/03 02:37:10;;;;;;;;;28.00;28.00;;;;;16.47;66.15;101550.91;4975301;28;45542;-71
2021/09/03 02:39:35;;;;;;;;;31.33;26.67;;;;;16.46;65.76;101557.22;4975964;28;45487;-70
2021/09/03 02:42:00;;;;;;;;;39.00;29.67;;;;;16.44;66.22;101551.19;4976137;28;45507;-70
2021/09/03 02:44:26;;;;;;;;;40.33;29.00;;;;;16.42;65.91;101546.97;4975756;28;45486;-71
2021/09/03 02:46:51;;;;;;;;;34.67;29.67;;;;;16.37;66.47;101533.28;4976072;28;45394;-70
2021/09/03 02:49:16;;;;;;;;;27.33;25.67;;;;;16.34;66.82;101535.22;4977854;28;45393;-70
2021/09/03 02:51:42;;;;;;;;;30.00;25.33;;;;;16.30;66.54;101527.69;4979046;28;45472;-71
2021/09/03 02:54:08;;;;;;;;;26.33;25.33;;;;;16.28;66.76;101526.94;4975608;28;46201;-70
2021/09/03 02:56:34;;;;;;;;;34.33;29.67;;;;;16.25;67.02;101525.41;4977008;28;45296;-71
2021/09/03 02:58:59;;;;;;;;;34.33;27.67;;;;;16.21;67.35;101524.00;4977011;28;45334;-70
2021/09/03 03:01:24;;;;;;;;;43.00;33.00;;;;;16.19;67.48;101530.41;4976308;28;47753;-69
2021/09/03 03:03:50;;;;;;;;;34.00;31.67;;;;;16.14;67.86;101518.38;4975112;28;46996;-71
2021/09/03 03:06:15;;;;;;;;;41.00;30.00;;;;;16.10;68.21;101526.72;4974596;28;45526;-68
2021/09/03 03:08:40;;;;;;;;;35.00;31.67;;;;;16.07;67.66;101517.22;4976406;28;45374;-69
2021/09/03 03:11:05;;;;;;;;;38.00;30.67;;;;;16.07;67.82;101516.38;4975921;28;45938;-69
2021/09/03 03:13:31;;;;;;;;;31.33;29.67;;;;;16.06;67.86;101514.69;4975602;28;46011;-69
2021/09/03 03:15:56;;;;;;;;;40.33;32.67;;;;;16.05;67.92;101515.66;4975233;28;45673;-70
2021/09/03 03:18:22;;;;;;;;;28.67;24.33;;;;;16.04;68.06;101520.13;4975796;28;45290;-69
2021/09/03 03:20:49;;;;;;;;;33.33;29.67;;;;;16.02;67.75;101522.06;4974484;28;45491;-68
2021/09/03 03:23:15;;;;;;;;;37.67;30.67;;;;;16.02;68.16;101523.88;4975281;28;45711;-69
2021/09/03 03:25:41;;;;;;;;;31.00;26.00;;;;;15.98;67.78;101518.84;4975645;28;45355;-69
2021/09/03 03:28:08;;;;;;;;;35.67;30.00;;;;;15.98;67.97;101515.34;4975465;28;45395;-70
2021/09/03 03:30:33;;;;;;;;;32.67;28.33;;;;;15.95;67.92;101515.63;4974945;28;45502;-70
2021/09/03 03:33:00;;;;;;;;;31.33;26.33;;;;;15.94;67.69;101512.13;4975022;28;46052;-69
2021/09/03 03:35:25;;;;;;;;;36.33;30.00;;;;;15.93;68.19;101505.16;4975100;28;45416;-69
2021/09/03 03:37:52;;;;;;;;;32.00;25.67;;;;;15.94;68.21;101504.16;4975555;28;45381;-70
2021/09/03 03:40:17;;;;;;;;;37.00;29.33;;;;;15.94;67.98;101509.47;4974974;28;45422;-69
2021/09/03 03:42:43;;;;;;;;;34.33;29.00;;;;;15.93;67.85;101515.75;4974097;28;46296;-68
2021/09/03 03:45:09;;;;;;;;;34.67;30.33;;;;;15.95;67.57;101523.56;4975099;28;45397;-70
2021/09/03 03:47:35;;;;;;;;;37.00;32.33;;;;;15.98;67.49;101529.47;4975319;28;45454;-69
2021/09/03 03:50:00;;;;;;;;;31.00;26.00;;;;;16.02;67.58;101529.19;4975231;28;45399;-70
2021/09/03 03:52:26;;;;;;;;;31.67;27.33;;;;;16.05;67.52;101523.63;4975025;28;45958;-69
2021/09/03 03:54:52;;;;;;;;;30.67;22.33;;;;;16.06;67.39;101520.00;4974706;28;45401;-70
2021/09/03 03:57:17;;;;;;;;;30.33;27.33;;;;;16.03;67.42;101514.97;4973851;28;45372;-68
2021/09/03 03:59:43;;;;;;;;;36.00;27.33;;;;;15.98;67.71;101518.84;4975129;28;45531;-68
2021/09/03 04:02:08;;;;;;;;;34.67;31.33;;;;;15.94;67.80;101524.53;4975377;28;45357;-69
2021/09/03 04:04:33;;;;;;;;;36.67;30.33;;;;;15.93;68.07;101525.50;4974114;28;45314;-69
2021/09/03 04:07:01;;;;;;;;;34.33;27.00;;;;;15.91;67.83;101528.28;4975204;28;45592;-69
2021/09/03 04:09:26;;;;;;;;;33.33;29.67;;;;;15.90;68.02;101523.94;4974919;28;45560;-69
2021/09/03 04:11:52;;;;;;;;;33.33;31.00;;;;;15.89;67.93;101511.66;4974902;28;45408;-69
2021/09/03 04:14:18;;;;;;;;;35.33;27.33;;;;;15.83;68.41;101504.25;4975090;28;45515;-68
2021/09/03 04:16:45;;;;;;;;;42.67;32.67;;;;;15.78;68.41;101507.25;4975610;28;45464;-68
2021/09/03 04:19:11;;;;;;;;;29.00;25.00;;;;;15.73;68.37;101509.44;4974927;28;45327;-70
2021/09/03 04:21:36;;;;;;;;;30.33;28.67;;;;;15.70;68.87;101508.84;4974583;28;47046;-70
2021/09/03 04:24:02;;;;;;;;;25.67;24.33;;;;;15.65;69.41;101504.78;4974971;28;45963;-67
2021/09/03 04:26:27;;;;;;;;;36.33;28.00;;;;;15.60;69.08;101503.50;4974977;28;45385;-70
2021/09/03 04:28:53;;;;;;;;;32.33;30.00;;;;;15.58;69.24;101505.41;4974187;28;45381;-69
2021/09/03 04:31:18;;;;;;;;;31.33;29.33;;;;;15.52;69.87;101504.13;4974292;28;46097;-69
2021/09/03 04:33:43;;;;;;;;;23.00;20.00;;;;;15.49;69.70;101512.31;4973247;28;45338;-68
2021/09/03 04:36:09;;;;;;;;;34.00;30.00;;;;;15.44;69.91;101509.22;4974808;28;45428;-68
2021/09/03 04:38:34;;;;;;;;;27.67;24.00;;;;;15.38;70.14;101507.09;4973760;28;45275;-69
2021/09/03 04:40:59;;;;;;;;;32.33;28.33;;;;;15.31;70.68;101502.28;4975336;28;45815;-68
2021/09/03 04:43:24;;;;;;;;;25.67;24.33;;;;;15.25;70.94;101500.13;4974440;28;45422;-69
2021/09/03 04:45:50;;;;;;;;;28.00;26.00;;;;;15.24;70.81;101503.75;4973298;28;45372;-70
2021/09/03 04:48:15;;;;;;;;;32.00;30.00;;;;;15.21;70.89;101493.41;4974319;28;45385;-69
2021/09/03 04:50:41;;;;;;;;;26.33;23.00;;;;;15.18;70.88;101498.97;4974704;28;46206;-69
2021/09/03 04:53:07;;;;;;;;;32.67;25.33;;;;;15.16;71.27;101495.59;4976255;28;46647;-70
2021/09/03 04:55:32;;;;;;;;;35.67;30.00;;;;;15.14;70.87;101498.38;4980169;28;45833;-68
2021/09/03 04:57:58;;;;;;;;;34.33;29.00;;;;;15.11;70.93;101492.50;4975144;28;45464;-68
2021/09/03 05:00:23;;;;;;;;;29.00;23.33;;;;;15.15;70.40;101509.78;4974456;28;46044;-68
2021/09/03 05:02:48;;;;;;;;;32.33;27.00;;;;;15.14;70.32;101498.38;4976127;28;45452;-68
2021/09/03 05:05:14;;;;;;;;;32.00;28.00;;;;;15.18;70.50;101498.97;4976727;28;45863;-70
2021/09/03 05:07:40;;;;;;;;;28.33;25.00;;;;;15.20;70.19;101493.56;4973861;28;45299;-69
2021/09/03 05:10:07;;;;;;;;;33.33;29.00;;;;;15.21;70.09;101492.59;4977172;28;47099;-69
2021/09/03 05:12:33;;;;;;;;;27.67;24.33;;;;;15.25;70.14;101494.84;4977853;28;45716;-69
2021/09/03 05:15:00;;;;;;;;;25.33;22.00;;;;;15.26;70.05;101495.69;4977379;28;45547;-69
2021/09/03 05:17:25;;;;;;;;;27.00;25.00;;;;;15.25;69.97;101494.84;4992519;28;45516;-69
2021/09/03 05:19:50;;;;;;;;;23.67;23.33;;;;;15.25;70.12;101502.78;4977781;28;45451;-70
2021/09/03 05:22:16;;;;;;;;;30.00;26.00;;;;;15.27;69.91;101500.00;4977389;28;45499;-70
2021/09/03 05:24:42;;;;;;;;;23.00;20.00;;;;;15.18;69.73;101480.44;4977584;28;45413;-69
2021/09/03 05:27:07;;;;;;;;;27.33;23.00;;;;;15.32;69.37;101506.63;4977529;28;45278;-68
2021/09/03 05:29:33;;;;;;;;;34.00;28.67;;;;;15.34;69.54;101503.84;4977047;28;45392;-69
2021/09/03 05:31:58;;;;;;;;;35.00;29.00;;;;;15.35;69.71;101500.25;4973649;28;45471;-69
2021/09/03 05:34:23;;;;;;;;;34.33;30.00;;;;;15.34;69.63;101494.09;4977521;28;45479;-69
2021/09/03 05:36:49;;;;;;;;;32.33;30.00;;;;;15.38;69.42;101507.09;4977088;28;45350;-69
2021/09/03 05:39:14;;;;;;;;;36.67;28.00;;;;;15.37;69.45;101508.06;4977410;28;46579;-68
2021/09/03 05:41:39;;;;;;;;;41.00;32.33;;;;;15.38;69.55;101515.03;4977865;28;45455;-69
2021/09/03 05:44:05;;;;;;;;;38.00;33.00;;;;;15.41;69.42;101514.75;4976995;28;45720;-70
2021/09/03 05:46:30;;;;;;;;;41.33;32.67;;;;;15.43;69.24;101512.84;4976657;28;45551;-69
2021/09/03 05:48:55;;;;;;;;;39.67;32.00;;;;;15.50;69.29;101511.34;4977017;28;45989;-69
2021/09/03 05:51:21;;;;;;;;;42.33;32.67;;;;;15.55;69.19;101517.09;4975773;28;45519;-69
2021/09/03 05:53:46;;;;;;;;;34.67;31.00;;;;;15.57;69.05;101520.47;4976885;28;45746;-69
2021/09/03 05:56:12;;;;;;;;;40.67;32.67;;;;;15.59;69.02;101518.53;4977952;28;45309;-72
2021/09/03 05:58:37;;;;;;;;;37.00;30.67;;;;;15.61;68.95;101518.44;4980183;28;45287;-69
2021/09/03 06:01:03;;;;;;;;;43.33;31.33;;;;;15.65;68.77;101525.16;4978090;28;45456;-70
2021/09/03 06:03:29;;;;;;;;;39.33;32.00;;;;;15.67;68.61;101516.09;4976611;28;45344;-70
2021/09/03 06:05:54;;;;;;;;;42.67;32.00;;;;;15.71;69.09;101522.00;4977002;28;45504;-69
2021/09/03 06:08:19;;;;;;;;;41.67;32.67;;;;;15.79;68.55;101524.81;4975511;28;46197;-69
2021/09/03 06:10:45;;;;;;;;;38.67;32.00;;;;;15.84;68.47;101529.78;4977362;28;45207;-70
2021/09/03 06:13:10;;;;;;;;;46.00;35.67;;;;;15.91;68.44;101532.75;4976986;28;45465;-69
2021/09/03 06:15:35;;;;;;;;;36.67;32.00;;;;;15.95;67.90;101528.88;4976091;28;45353;-70
2021/09/03 06:18:01;;;;;;;;;31.00;25.00;;;;;15.98;67.87;101526.81;4976641;28;45865;-70
2021/09/03 06:20:26;;;;;;;;;39.33;34.00;;;;;16.00;67.90;101526.66;4975801;28;45336;-69
2021/09/03 06:22:52;;;;;;;;;36.00;30.00;;;;;16.05;67.86;101535.06;4977882;28;45450;-71
2021/09/03 06:25:17;;;;;;;;;34.67;29.00;;;;;16.09;67.83;101536.50;4976450;28;45369;-70
2021/09/03 06:27:42;;;;;;;;;32.33;30.00;;;;;16.11;67.88;101533.69;4976092;28;46404;-70
2021/09/03 06:30:09;;;;;;;;;40.00;32.33;;;;;16.14;67.43;101525.50;4975869;28;45452;-70
2021/09/03 06:32:35;;;;;;;;;35.00;31.33;;;;;16.18;67.19;101524.28;4977748;28;45460;-69
2021/09/03 06:35:03;;;;;;;;;41.67;32.33;;;;;16.18;67.01;101521.63;4977556;28;45409;-69
2021/09/03 06:37:30;;;;;;;;;35.33;30.00;;;;;16.19;67.32;101520.66;4975624;28;47662;-69
2021/09/03 06:39:56;;;;;;;;;37.67;32.67;;;;;16.19;67.35;101520.66;4976175;28;45740;-69
2021/09/03 06:42:22;;;;;;;;;31.33;27.67;;;;;16.24;67.27;101517.59;4974941;28;45576;-69
2021/09/03 06:44:47;;;;;;;;;30.67;26.00;;;;;16.26;66.94;101519.13;4975897;28;45489;-69
2021/09/03 06:47:14;;;;;;;;;34.67;29.67;;;;;16.29;66.96;101521.50;4975329;28;45940;-69
2021/09/03 06:49:41;;;;;;;;;36.00;30.33;;;;;16.33;67.09;101528.25;4976233;28;45496;-70
2021/09/03 06:52:07;;;;;;;;;38.33;30.00;;;;;16.37;66.82;101523.50;4976007;28;45566;-69
2021/09/03 06:54:34;;;;;;;;;29.67;26.67;;;;;16.40;66.71;101517.97;4975515;28;45422;-69
2021/09/03 06:57:00;;;;;;;;;29.67;29.00;;;;;16.45;66.74;101525.50;4975391;28;47198;-70
2021/09/03 06:59:27;;;;;;;;;30.33;26.33;;;;;16.50;66.75;101526.78;4975920;28;45251;-71
2021/09/03 07:01:52;;;;;;;;;36.67;32.33;;;;;16.57;66.60;101529.75;4976627;28;45278;-69
2021/09/03 07:04:17;;;;;;;;;30.33;28.00;;;;;16.61;66.38;101525.84;4975796;28;45338;-69
2021/09/03 07:06:43;;;;;;;;;35.67;29.33;;;;;16.62;66.20;101527.53;4975718;28;46973;-70
2021/09/03 07:09:08;;;;;;;;;24.00;20.67;;;;;16.66;66.05;101522.81;4975812;28;45446;-69
2021/09/03 07:11:34;;;;;;;;;20.67;19.33;;;;;16.69;66.02;101527.84;4975747;28;45300;-69
2021/09/03 07:14:02;;;;;;;;;31.33;23.33;;;;;16.72;65.76;101527.56;4976527;28;45374;-69
2021/09/03 07:16:28;;;;;;;;;25.67;20.67;;;;;16.76;65.61;101522.81;4975936;28;46015;-70
2021/09/03 07:18:53;;;;;;;;;20.33;19.67;;;;;16.80;65.46;101519.78;4975733;28;47268;-69
2021/09/03 07:21:19;;;;;;;;;22.67;19.67;;;;;16.86;65.27;101518.38;4975624;28;45534;-69
2021/09/03 07:23:44;;;;;;;;;19.33;18.00;;;;;16.91;64.82;101513.53;4975756;28;45331;-69
2021/09/03 07:26:10;;;;;;;;;23.33;20.67;;;;;16.93;64.91;101516.91;4975811;28;45918;-69
2021/09/03 07:28:35;;;;;;;;;23.00;19.00;;;;;16.94;64.73;101515.94;4979146;28;45380;-68
2021/09/03 07:31:01;;;;;;;;;23.33;19.00;;;;;16.98;64.92;101527.94;4976693;28;45480;-70
2021/09/03 07:33:26;;;;;;;;;21.00;18.33;;;;;17.05;64.68;101530.06;4977944;28;45793;-69
2021/09/03 07:35:52;;;;;;;;;21.00;19.00;;;;;17.10;64.49;101526.03;4977414;28;45989;-70
2021/09/03 07:38:18;;;;;;;;;23.67;21.00;;;;;17.15;64.20;101523.78;4974401;28;45454;-69
2021/09/03 07:40:44;;;;;;;;;20.67;18.00;;;;;17.18;64.34;101522.69;4973566;28;45343;-68
2021/09/03 07:43:09;;;;;;;;;20.67;19.00;;;;;17.26;64.09;101529.94;4976382;28;45435;-70
2021/09/03 07:45:36;;;;;;;;;23.33;19.67;;;;;17.32;64.02;101519.63;4974786;28;46995;-69
2021/09/03 07:48:02;;;;;;;;;23.33;19.67;;;;;17.37;64.04;101521.00;4975425;28;45433;-70
2021/09/03 07:50:28;;;;;;;;;19.00;17.00;;;;;17.46;63.82;101525.47;4975978;28;45465;-70
2021/09/03 07:52:53;;;;;;;;;18.33;18.00;;;;;17.50;63.75;101526.88;4976400;28;45421;-69
2021/09/03 07:55:19;;;;;;;;;20.33;18.67;;;;;17.55;63.35;101529.13;4973533;28;48344;-69
2021/09/03 07:57:44;;;;;;;;;19.00;18.00;;;;;17.54;63.27;101517.66;4974927;28;45510;-69
2021/09/03 08:00:10;;;;;;;;;24.33;20.00;;;;;17.58;63.63;101513.75;4975228;28;45392;-70
2021/09/03 08:02:35;;;;;;;;;22.33;19.00;;;;;17.61;63.15;101513.44;4975676;28;45352;-70
2021/09/03 08:05:01;;;;;;;;;20.67;15.00;;;;;17.65;63.10;101514.84;4976252;28;46372;-70
2021/09/03 08:07:28;;;;;;;;;25.33;19.00;;;;;17.71;63.10;101517.91;4974871;28;45420;-72
2021/09/03 08:09:54;;;;;;;;;15.67;15.67;;;;;17.76;62.89;101515.66;4974895;28;45353;-68
2021/09/03 08:12:20;;;;;;;;;18.00;18.00;;;;;17.80;63.03;101517.91;4974812;28;45507;-69
2021/09/03 08:14:45;;;;;;;;;22.00;19.33;;;;;17.84;62.77;101518.47;4974874;28;46226;-69
2021/09/03 08:17:10;;;;;;;;;18.00;17.67;;;;;17.90;62.53;101519.72;4975181;28;45436;-69
2021/09/03 08:19:36;;;;;;;;;18.67;17.00;;;;;17.96;62.26;101521.84;4975531;28;45522;-70
2021/09/03 08:22:02;;;;;;;;;24.50;17.50;;;;;18.01;62.30;101519.59;4975009;28;45370;-69
2021/09/03 08:24:27;;;;;;;;;21.67;19.00;;;;;18.06;62.32;101511.16;4973259;28;46555;-70
2021/09/03 08:26:52;;;;;;;;;17.67;16.67;;;;;18.15;62.55;101510.31;4974374;28;45626;-70
2021/09/03 08:29:18;;;;;;;;;19.00;18.00;;;;;18.23;62.19;101513.09;4974261;28;45588;-70
2021/09/03 08:31:43;;;;;;;;;18.00;16.33;;;;;18.33;61.94;101520.19;4974797;28;45294;-69
2021/09/03 08:34:09;;;;;;;;;16.33;14.67;;;;;18.39;61.78;101519.63;4974379;28;45597;-70
2021/09/03 08:36:34;;;;;;;;;25.33;18.33;;;;;18.46;61.14;101507.38;4974110;28;45467;-70
2021/09/03 08:39:00;;;;;;;;;19.33;17.00;;;;;18.53;61.05;101512.97;4973536;28;45623;-69
2021/09/03 08:41:25;;;;;;;;;17.67;14.67;;;;;18.59;61.15;101505.25;4975028;28;45399;-69
2021/09/03 08:43:59;;;;;;;;;19.67;16.00;;;;;18.66;61.18;101512.66;4976713;28;45393;-69
2021/09/03 08:46:26;;;;;;;;;20.33;18.00;;;;;18.74;60.25;101510.88;4978803;28;45363;-70
2021/09/03 08:48:53;;;;;;;;;16.33;13.33;;;;;18.80;60.30;101504.16;4978977;28;45471;-69
2021/09/03 08:51:18;;;;;;;;;20.00;17.33;;;;;18.87;60.28;101499.91;4979538;28;45432;-69
2021/09/03 08:53:45;;;;;;;;;20.67;18.00;;;;;19.05;60.52;101491.97;4978282;28;45483;-68
2021/09/03 08:56:10;;;;;;;;;17.00;16.00;;;;;19.31;59.88;101490.38;4979497;28;45522;-69
2021/09/03 08:58:35;;;;;;;;;17.00;16.00;;;;;19.50;59.13;101492.88;4979313;28;45449;-69
2021/09/03 09:01:13;;;;;;;;;17.67;17.67;;;;;19.73;58.99;101495.03;4978794;28;45480;-69
2021/09/03 09:03:43;;;;;;;;;21.00;18.00;;;;;19.95;58.21;101488.38;4978099;28;46106;-69
2021/09/03 09:06:10;;;;;;;;;21.00;15.50;;;;;20.19;58.00;101495.69;4977550;28;45472;-69
2021/09/03 09:08:37;;;;;;;;;18.67;16.00;;;;;20.43;57.47;101494.13;4976584;28;45512;-68
2021/09/03 09:11:13;;;;;;;;;16.33;16.33;;;;;20.67;57.21;101501.41;4978592;28;45419;-68
2021/09/03 09:13:44;;;;;;;;;18.67;15.00;;;;;20.88;56.65;101503.66;4977440;28;47222;-69
2021/09/03 09:16:12;;;;;;;;;16.00;16.00;;;;;21.05;56.11;101501.84;4977687;28;45423;-68
2021/09/03 09:18:40;;;;;;;;;18.25;14.25;;;;;21.15;55.75;101493.72;4977472;28;45394;-69
2021/09/03 09:21:35;;;;;;;;;16.00;13.25;;;;;21.20;55.19;101487.84;4976918;28;45244;-69
2021/09/03 09:24:09;;;;;;;;;17.75;14.00;;;;;21.21;55.38;101490.38;4965172;28;47244;-69
2021/09/03 09:26:35;;;;;;;;;14.00;13.50;;;;;21.19;54.99;101487.03;4962549;28;45552;-69
2021/09/03 09:29:15;;;;;;;;;13.50;12.25;;;;;21.16;54.53;101486.50;4978285;28;45353;-67
2021/09/03 09:31:40;;;;;;;;;20.00;16.75;;;;;21.12;54.76;101486.03;4977833;28;45405;-69
2021/09/03 09:34:21;;;;;;;;;18.50;17.50;;;;;21.11;54.69;101479.00;4977405;28;47175;-69
2021/09/03 09:36:48;;;;;;;;;21.25;18.00;;;;;21.11;54.69;101481.69;4975616;28;45642;-70
2021/09/03 09:39:15;;;;;;;;;16.50;15.00;;;;;21.12;54.36;101480.69;4977321;28;45385;-69
2021/09/03 09:41:42;;;;;;;;;16.75;13.00;;;;;21.16;54.29;101473.16;4977521;28;45819;-69
2021/09/03 09:44:07;;;;;;;;;13.75;13.75;;;;;21.19;54.54;101484.34;4977322;28;46256;-69
2021/09/03 09:46:33;;;;;;;;;14.75;13.50;;;;;21.22;54.24;101485.84;4977438;28;45341;-69
2021/09/03 09:49:04;;;;;;;;;17.00;13.50;;;;;21.26;54.29;101476.50;4976844;28;47916;-68
2021/09/03 09:51:32;;;;;;;;;10.75;10.75;;;;;21.30;54.21;101471.66;4977448;28;45588;-68
2021/09/03 09:53:59;;;;;;;;;9.00;7.25;;;;;21.33;53.90;101469.50;4977371;28;46353;-70
2021/09/03 09:56:26;;;;;;;;;15.00;12.33;;;;;21.40;54.02;101472.34;4976566;28;45507;-70
2021/09/03 09:58:55;;;;;;;;;18.25;15.00;;;;;21.48;53.71;101464.31;4977813;28;45596;-70
2021/09/03 10:01:21;;;;;;;;;15.25;14.50;;;;;21.54;54.00;101463.69;4976291;28;45578;-68
2021/09/03 10:03:48;;;;;;;;;18.50;15.50;;;;;21.59;53.72;101464.00;4978298;28;45313;-70
2021/09/03 10:06:19;;;;;;;;;21.33;14.33;;;;;21.65;53.82;101464.34;4978020;28;45404;-72
2021/09/03 10:08:46;;;;;;;;;18.50;16.00;;;;;21.67;53.51;101457.81;4977214;28;45246;-70
2021/09/03 10:11:16;;;;;;;;;21.25;16.75;;;;;21.76;53.65;101453.28;4976240;28;45503;-71
2021/09/03 10:13:42;;;;;;;;;14.75;13.75;;;;;21.82;53.44;101457.13;4976777;28;46842;-70
2021/09/03 10:16:08;;;;;;;;;16.75;12.50;;;;;21.89;53.58;101466.97;4976683;28;45530;-72
2021/09/03 10:18:33;;;;;;;;;13.00;13.00;;;;;21.93;53.32;101456.75;4976939;28;45425;-71
2021/09/03 10:21:03;;;;;;;;;14.50;12.75;;;;;22.02;53.56;101455.72;4980681;28;45484;-71
2021/09/03 10:23:50;;;;;;;;;15.25;15.00;;;;;22.12;53.12;101460.03;4979842;28;47124;-70
2021/09/03 10:26:20;;;;;;;;;11.75;11.75;;;;;22.18;53.20;101460.19;4978890;28;46949;-71
2021/09/03 10:28:45;;;;;;;;;15.25;14.50;;;;;22.22;53.01;101453.50;4979888;28;45437;-69
2021/09/03 10:31:11;;;;;;;;;16.50;15.00;;;;;22.31;53.22;101450.78;4980852;28;45399;-68
2021/09/03 10:33:38;;;;;;;;;15.00;12.50;;;;;22.40;52.93;101452.44;4974535;28;48579;-70
2021/09/03 10:36:05;;;;;;;;;14.00;12.50;;;;;22.47;52.73;101452.56;4972399;28;45480;-70
2021/09/03 10:38:33;;;;;;;;;16.25;15.25;;;;;22.54;52.61;101458.91;4976391;28;45357;-70
2021/09/03 10:41:01;;;;;;;;;19.25;15.75;;;;;22.55;52.91;101434.63;4976901;28;45326;-70
2021/09/03 10:43:42;;;;;;;;;13.25;13.25;;;;;22.72;52.56;101445.25;4975921;28;45539;-70
2021/09/03 10:46:10;;;;;;;;;14.25;14.25;;;;;22.78;52.37;101444.50;4975471;28;45493;-69
2021/09/03 10:48:35;;;;;;;;;22.00;14.75;;;;;22.81;51.96;101438.81;4975968;28;45436;-70
2021/09/03 10:51:01;;;;;;;;;15.75;15.75;;;;;22.86;52.29;101436.44;4975633;28;45834;-70
2021/09/03 10:53:31;;;;;;;;;19.50;14.50;;;;;22.87;52.28;101438.13;4974520;28;47194;-70
2021/09/03 10:56:24;;;;;;;;;212.00;174.50;;;;;22.93;52.34;101433.06;4976570;28;45429;-70
2021/09/03 10:58:51;;;;;;;;;16.75;14.00;;;;;22.98;51.95;101428.00;4978130;28;45513;-69
2021/09/03 11:01:25;;;;;;;;;16.00;14.00;;;;;23.03;51.62;101436.34;4976147;28;45494;-70
2021/09/03 11:04:02;;;;;;;;;15.00;13.75;;;;;23.06;51.82;101431.44;4975514;28;46116;-69
2021/09/03 11:06:32;;;;;;;;;16.25;14.25;;;;;23.11;51.83;101422.88;4975609;28;45302;-68